Time;durP1;ratioP1;P1;durP2;ratioP2;P2;SDS_P1;SDS_P2;PMS_P1;PMS_P2;Temp;Humidity;BMP_temperature;BMP_pressure;BME280_temperature;BME280_humidity;BME280_pressure;Samples;Min_cycle;Max_cycle;Signal;HPM_P1;HPM_P2
2022/08/28 00:02:05;;;;;;;2.65;1.10;;;19.10;93.10;;;;;;4918757;28;20586;-73
2022/08/28 00:04:31;;;;;;;2.72;1.50;;;19.10;93.20;;;;;;4905556;28;20047;-73
2022/08/28 00:06:57;;;;;;;2.03;1.40;;;19.10;93.20;;;;;;4917631;28;20629;-73
2022/08/28 00:09:22;;;;;;;4.32;1.25;;;19.10;93.30;;;;;;4920961;28;20047;-73
2022/08/28 00:11:49;;;;;;;4.38;1.40;;;19.10;93.30;;;;;;4919785;28;20040;-73
2022/08/28 00:14:17;;;;;;;3.00;1.35;;;19.00;93.40;;;;;;4917555;28;20054;-73
2022/08/28 00:16:44;;;;;;;4.40;1.73;;;19.10;93.40;;;;;;4916416;28;20548;-73
2022/08/28 00:19:10;;;;;;;4.28;1.60;;;19.00;93.40;;;;;;4916253;28;20064;-73
2022/08/28 00:21:36;;;;;;;3.53;1.38;;;19.00;93.50;;;;;;4916272;28;20036;-73
2022/08/28 00:24:02;;;;;;;6.78;1.80;;;19.00;93.60;;;;;;4897656;28;20571;-73
2022/08/28 00:29:13;;;;;;;4.30;1.58;;;18.90;93.70;;;;;;4916334;28;20052;-72
2022/08/28 00:31:38;;;;;;;3.90;1.95;;;18.90;93.80;;;;;;4918027;28;20057;-73
2022/08/28 00:34:06;;;;;;;3.78;1.95;;;18.90;93.80;;;;;;4890279;28;20079;-73
2022/08/28 00:36:32;;;;;;;2.20;1.20;;;18.90;93.90;;;;;;4921028;28;20071;-73
2022/08/28 00:38:59;;;;;;;3.00;1.67;;;18.90;94.00;;;;;;4918157;28;20118;-73
2022/08/28 00:41:26;;;;;;;3.00;1.33;;;18.80;94.00;;;;;;4918367;28;20048;-73
2022/08/28 00:44:14;;;;;;;2.22;1.42;;;18.90;94.10;;;;;;4915267;28;20048;-73
2022/08/28 00:46:46;;;;;;;3.67;1.48;;;18.80;94.10;;;;;;4916793;28;20040;-73
2022/08/28 00:49:15;;;;;;;2.63;1.65;;;18.80;94.20;;;;;;4917712;28;20127;-73
2022/08/28 00:54:27;;;;;;;4.70;1.88;;;18.80;94.30;;;;;;4917545;28;20075;-72
2022/08/28 00:56:54;;;;;;;4.25;1.70;;;18.70;94.30;;;;;;4919442;28;20115;-72
2022/08/28 00:59:25;;;;;;;4.07;1.75;;;18.70;94.40;;;;;;4914604;28;20048;-72
2022/08/28 01:01:55;;;;;;;3.33;1.52;;;18.70;94.50;;;;;;4919417;28;20048;-73
2022/08/28 01:04:23;;;;;;;4.45;2.55;;;18.70;94.60;;;;;;4916954;28;20054;-73
2022/08/28 01:06:52;;;;;;;6.38;2.28;;;18.70;94.60;;;;;;4901622;28;20055;-73
2022/08/28 01:09:19;;;;;;;5.10;2.10;;;18.60;94.60;;;;;;4898473;28;20236;-73
2022/08/28 01:11:47;;;;;;;4.45;1.77;;;18.60;94.70;;;;;;4921053;28;20118;-73
2022/08/28 01:14:15;;;;;;;6.20;1.58;;;18.60;94.80;;;;;;4913590;28;20039;-73
2022/08/28 01:16:42;;;;;;;3.47;2.05;;;18.50;94.80;;;;;;4901432;28;20346;-73
2022/08/28 01:19:17;;;;;;;2.80;1.20;;;18.50;94.90;;;;;;4915960;28;20060;-73
2022/08/28 01:22:30;;;;;;;2.92;1.42;;;18.50;95.00;;;;;;4913587;28;20040;-73
2022/08/28 01:24:59;;;;;;;7.13;1.80;;;18.40;95.10;;;;;;4930121;28;20052;-72
2022/08/28 01:27:25;;;;;;;4.68;2.08;;;18.30;95.10;;;;;;4914268;28;20043;-72
2022/08/28 01:29:51;;;;;;;2.70;1.58;;;18.30;95.30;;;;;;4904416;28;20043;-72
2022/08/28 01:32:37;;;;;;;4.35;1.80;;;18.30;95.30;;;;;;4913277;28;20410;-72
2022/08/28 01:35:08;;;;;;;4.47;1.77;;;18.30;95.40;;;;;;4920382;28;20043;-72
2022/08/28 01:37:35;;;;;;;2.28;1.48;;;18.20;95.40;;;;;;4918386;28;20063;-72
2022/08/28 01:40:01;;;;;;;4.28;1.90;;;18.20;95.50;;;;;;4908033;28;20048;-73
2022/08/28 01:42:27;;;;;;;4.20;2.28;;;18.20;95.60;;;;;;4921026;28;20051;-72
2022/08/28 01:44:53;;;;;;;5.35;1.95;;;18.20;95.70;;;;;;4888422;28;20569;-73
2022/08/28 01:47:20;;;;;;;6.45;2.35;;;18.20;95.70;;;;;;4922807;28;20102;-73
2022/08/28 01:49:46;;;;;;;3.38;1.50;;;18.20;95.80;;;;;;4922098;28;20055;-72
2022/08/28 01:52:11;;;;;;;6.65;2.13;;;18.10;95.80;;;;;;4921433;28;20144;-72
2022/08/28 01:54:38;;;;;;;2.78;1.80;;;18.10;95.90;;;;;;4903624;28;20449;-73
2022/08/28 01:57:04;;;;;;;4.22;2.33;;;18.10;96.00;;;;;;4903312;28;20118;-73
2022/08/28 01:59:31;;;;;;;4.13;1.67;;;18.00;96.10;;;;;;4917669;28;20052;-72
2022/08/28 02:01:56;;;;;;;4.22;2.20;;;18.00;96.20;;;;;;4908949;28;20040;-72
2022/08/28 02:04:23;;;;;;;3.55;1.52;;;18.00;96.20;;;;;;4907666;28;20040;-72
2022/08/28 02:06:49;;;;;;;6.88;3.42;;;18.10;96.20;;;;;;4923812;28;20156;-72
2022/08/28 02:09:15;;;;;;;3.38;1.50;;;18.10;96.30;;;;;;4918523;28;20461;-72
2022/08/28 02:11:42;;;;;;;5.57;2.83;;;18.00;96.30;;;;;;4923265;28;20040;-72
2022/08/28 02:14:09;;;;;;;5.05;1.80;;;18.00;96.40;;;;;;4905336;28;20040;-73
2022/08/28 02:16:35;;;;;;;4.47;1.95;;;18.00;96.40;;;;;;4906380;28;20135;-72
2022/08/28 02:19:00;;;;;;;3.47;1.60;;;17.90;96.50;;;;;;4920504;28;21074;-72
2022/08/28 02:21:26;;;;;;;6.40;1.85;;;17.90;96.60;;;;;;4924220;28;20260;-73
2022/08/28 02:23:52;;;;;;;2.85;2.00;;;17.90;96.60;;;;;;4920555;28;20135;-72
2022/08/28 02:26:18;;;;;;;3.10;1.70;;;17.90;96.70;;;;;;4921197;28;20861;-72
2022/08/28 02:28:44;;;;;;;3.92;2.15;;;17.80;96.80;;;;;;4894225;28;20049;-73
2022/08/28 02:31:10;;;;;;;4.95;2.20;;;17.80;96.80;;;;;;4921307;28;20075;-72
2022/08/28 02:33:38;;;;;;;3.42;1.83;;;17.80;96.80;;;;;;4910078;28;21369;-72
2022/08/28 02:36:07;;;;;;;3.83;1.75;;;17.80;96.90;;;;;;4905530;28;20040;-72
2022/08/28 02:38:33;;;;;;;5.22;1.88;;;17.80;97.00;;;;;;4906418;28;20368;-73
2022/08/28 02:40:59;;;;;;;3.08;1.63;;;17.70;97.00;;;;;;4901960;28;20052;-73
2022/08/28 02:43:24;;;;;;;4.43;2.22;;;17.70;97.10;;;;;;4900108;28;20135;-73
2022/08/28 02:45:50;;;;;;;5.00;1.83;;;17.70;97.10;;;;;;4912932;28;20055;-72
2022/08/28 02:48:16;;;;;;;3.97;1.65;;;17.70;97.20;;;;;;4907333;28;20098;-72
2022/08/28 02:50:45;;;;;;;4.85;2.97;;;17.70;97.20;;;;;;4908374;28;20060;-72
2022/08/28 02:53:11;;;;;;;3.50;1.52;;;17.70;97.30;;;;;;4905710;28;20673;-72
2022/08/28 02:55:37;;;;;;;7.88;2.10;;;17.70;97.30;;;;;;4898610;28;20092;-72
2022/08/28 02:58:05;;;;;;;3.90;1.58;;;17.70;97.40;;;;;;4887937;28;20063;-72
2022/08/28 03:00:31;;;;;;;5.53;1.80;;;17.70;97.50;;;;;;4897681;28;21856;-72
2022/08/28 03:02:57;;;;;;;6.05;1.85;;;17.70;97.60;;;;;;4904988;28;20043;-71
2022/08/28 03:05:24;;;;;;;4.05;1.80;;;17.70;97.60;;;;;;4968536;28;20052;-72
2022/08/28 03:07:52;;;;;;;4.20;2.28;;;17.60;97.60;;;;;;4902483;28;20206;-72
2022/08/28 03:10:19;;;;;;;7.45;2.10;;;17.70;97.70;;;;;;4896382;28;20483;-71
2022/08/28 03:12:45;;;;;;;6.07;1.95;;;17.60;98.00;;;;;;4914403;28;20200;-72
2022/08/28 03:15:11;;;;;;;9.48;2.08;;;17.60;97.80;;;;;;4906496;28;20196;-72
2022/08/28 03:17:37;;;;;;;2.40;1.65;;;17.60;97.90;;;;;;4905568;28;20041;-72
2022/08/28 03:20:06;;;;;;;3.25;2.45;;;17.80;98.00;;;;;;4901069;28;20074;-72
2022/08/28 03:25:17;;;;;;;2.72;1.25;;;17.50;98.10;;;;;;4903968;28;20044;-72
2022/08/28 03:27:43;;;;;;;4.95;1.77;;;17.50;98.10;;;;;;4905001;28;20048;-72
2022/08/28 03:30:09;;;;;;;3.72;2.05;;;17.50;98.20;;;;;;4904545;28;20048;-72
2022/08/28 03:32:35;;;;;;;6.25;1.90;;;17.40;98.20;;;;;;4904418;28;20655;-72
2022/08/28 03:35:01;;;;;;;2.65;2.08;;;17.40;98.30;;;;;;4906821;28;20040;-72
2022/08/28 03:37:27;;;;;;;5.22;2.35;;;17.50;98.40;;;;;;4899481;28;20578;-72
2022/08/28 03:39:53;;;;;;;3.78;1.73;;;17.40;98.50;;;;;;4910035;28;20048;-72
2022/08/28 03:42:19;;;;;;;3.75;2.13;;;17.30;98.50;;;;;;4897634;28;20047;-73
2022/08/28 03:44:47;;;;;;;3.22;1.60;;;17.30;98.60;;;;;;4900606;28;20108;-73
2022/08/28 03:47:14;;;;;;;3.95;1.85;;;17.30;98.70;;;;;;4897821;28;20051;-72
2022/08/28 03:49:40;;;;;;;4.35;2.92;;;17.20;98.80;;;;;;4901303;28;20343;-72
2022/08/28 03:52:06;;;;;;;6.05;2.00;;;17.20;98.90;;;;;;4899256;28;20052;-73
2022/08/28 03:54:31;;;;;;;5.65;2.13;;;17.30;99.00;;;;;;4907114;28;20047;-72
2022/08/28 03:56:57;;;;;;;4.25;1.77;;;17.30;99.00;;;;;;4876194;28;20048;-72
2022/08/28 03:59:23;;;;;;;3.60;2.08;;;17.30;99.10;;;;;;4898238;28;20055;-72
2022/08/28 04:01:49;;;;;;;4.32;1.98;;;17.30;99.10;;;;;;4881487;28;20607;-72
2022/08/28 04:04:15;;;;;;;3.60;1.95;;;17.30;99.10;;;;;;4899763;28;20049;-72
2022/08/28 04:06:40;;;;;;;3.00;1.98;;;17.30;99.10;;;;;;4902660;28;20048;-72
2022/08/28 04:09:06;;;;;;;5.43;1.98;;;17.20;99.20;;;;;;4897098;28;20091;-72
2022/08/28 04:11:39;;;;;;;4.35;1.65;;;17.20;99.30;;;;;;4898996;28;20048;-72
2022/08/28 04:14:05;;;;;;;3.30;1.75;;;17.20;99.40;;;;;;4902922;28;20044;-72
2022/08/28 04:16:30;;;;;;;3.55;1.80;;;17.20;99.40;;;;;;4907153;28;20052;-71
2022/08/28 04:18:57;;;;;;;4.75;1.92;;;17.20;99.70;;;;;;4886375;28;20378;-72
2022/08/28 04:21:24;;;;;;;3.60;1.95;;;17.10;99.50;;;;;;4878692;28;20040;-72
2022/08/28 04:23:51;;;;;;;4.93;2.22;;;17.10;99.70;;;;;;4885728;28;20048;-72
2022/08/28 04:26:20;;;;;;;4.80;1.80;;;17.00;99.70;;;;;;4903697;28;20091;-72
2022/08/28 04:28:47;;;;;;;2.95;1.98;;;17.00;99.90;;;;;;4875723;28;20044;-72
2022/08/28 04:31:14;;;;;;;4.95;2.00;;;17.00;99.90;;;;;;4875273;28;20781;-72
2022/08/28 04:33:40;;;;;;;5.75;2.42;;;17.00;99.90;;;;;;4900356;28;20039;-72
2022/08/28 04:36:12;;;;;;;4.07;2.08;;;16.70;99.90;;;;;;4965377;28;20049;-72
2022/08/28 04:38:39;;;;;;;7.30;1.90;;;16.90;99.90;;;;;;4899764;28;20048;-72
2022/08/28 04:41:06;;;;;;;7.43;2.63;;;16.80;99.90;;;;;;4899882;28;20087;-72
2022/08/28 04:43:32;;;;;;;4.55;1.98;;;16.90;99.90;;;;;;4899211;28;20564;-72
2022/08/28 04:45:58;;;;;;;4.45;1.90;;;16.90;99.90;;;;;;4890511;28;20060;-72
2022/08/28 04:48:24;;;;;;;5.25;2.45;;;16.90;99.90;;;;;;4891218;28;20046;-72
2022/08/28 04:50:50;;;;;;;4.85;2.50;;;16.90;99.90;;;;;;4902110;28;20479;-72
2022/08/28 04:53:18;;;;;;;6.13;2.92;;;16.80;99.90;;;;;;4894582;28;20044;-72
2022/08/28 04:55:47;;;;;;;5.70;3.42;;;16.80;99.90;;;;;;4898422;28;20080;-72
2022/08/28 04:58:13;;;;;;;7.55;3.10;;;16.70;99.90;;;;;;4898209;28;20623;-72
2022/08/28 05:00:42;;;;;;;4.38;1.95;;;16.70;99.90;;;;;;4902324;28;20217;-72
2022/08/28 05:03:10;;;;;;;6.00;3.45;;;16.70;99.90;;;;;;4899217;28;20123;-72
2022/08/28 05:05:53;;;;;;;4.75;2.25;;;16.70;99.90;;;;;;4912079;28;20047;-72
2022/08/28 05:08:22;;;;;;;7.18;2.75;;;16.70;99.90;;;;;;4890937;28;20043;-72
2022/08/28 05:10:48;;;;;;;5.40;2.25;;;16.70;99.90;;;;;;4893203;28;20040;-72
2022/08/28 05:13:14;;;;;;;4.43;3.13;;;16.70;99.90;;;;;;4901705;28;20439;-73
2022/08/28 05:15:47;;;;;;;8.48;2.70;;;16.70;99.90;;;;;;4901717;28;20698;-72
2022/08/28 05:18:14;;;;;;;10.63;3.08;;;16.60;99.90;;;;;;4911243;28;20106;-72
2022/08/28 05:20:43;;;;;;;3.50;2.17;;;16.60;99.90;;;;;;4899672;28;20543;-72
2022/08/28 05:23:10;;;;;;;6.35;2.13;;;16.60;99.90;;;;;;4882996;28;20052;-72
2022/08/28 05:25:38;;;;;;;2.55;1.70;;;16.50;99.90;;;;;;4889660;28;20085;-72
2022/08/28 05:28:04;;;;;;;3.42;2.10;;;16.60;99.90;;;;;;4902766;28;20046;-72
2022/08/28 05:30:33;;;;;;;7.40;2.60;;;16.50;99.90;;;;;;4906952;28;20164;-72
2022/08/28 05:32:59;;;;;;;3.65;2.17;;;16.90;99.90;;;;;;4896122;28;20082;-72
2022/08/28 05:35:28;;;;;;;4.68;2.20;;;16.50;99.90;;;;;;4905290;28;20055;-72
2022/08/28 05:37:54;;;;;;;4.80;2.30;;;16.50;99.90;;;;;;4906154;28;20488;-72
2022/08/28 05:40:23;;;;;;;5.07;2.83;;;16.50;99.90;;;;;;4909454;28;20048;-72
2022/08/28 05:42:49;;;;;;;7.22;2.35;;;16.50;99.90;;;;;;4911106;28;20488;-72
2022/08/28 05:45:15;;;;;;;4.20;2.10;;;16.50;99.90;;;;;;4914025;28;20098;-72
2022/08/28 05:47:42;;;;;;;4.82;2.58;;;16.50;99.90;;;;;;4920217;28;20118;-72
2022/08/28 05:50:09;;;;;;;6.65;2.42;;;16.40;99.90;;;;;;4919376;28;20048;-72
2022/08/28 05:52:35;;;;;;;10.23;2.33;;;16.40;99.90;;;;;;4922272;28;20527;-72
2022/08/28 05:55:01;;;;;;;4.15;2.38;;;16.40;99.90;;;;;;4922875;28;20044;-72
2022/08/28 05:57:28;;;;;;;7.60;2.45;;;16.40;99.90;;;;;;4921851;28;20050;-72
2022/08/28 05:59:54;;;;;;;5.07;3.15;;;16.50;99.90;;;;;;4919091;28;20586;-72
2022/08/28 06:02:19;;;;;;;3.80;2.72;;;16.50;99.90;;;;;;4918950;28;20339;-72
2022/08/28 06:04:47;;;;;;;6.13;2.83;;;16.40;99.90;;;;;;4920122;28;20048;-72
2022/08/28 06:07:14;;;;;;;8.57;3.00;;;16.50;99.90;;;;;;4919651;28;20048;-72
2022/08/28 06:09:40;;;;;;;6.45;2.97;;;16.50;99.90;;;;;;4924236;28;20841;-72
2022/08/28 06:12:07;;;;;;;4.18;2.85;;;16.60;99.90;;;;;;4921176;28;20055;-72
2022/08/28 06:14:33;;;;;;;4.10;2.30;;;16.60;99.90;;;;;;4903549;28;20048;-72
2022/08/28 06:17:00;;;;;;;4.88;2.67;;;16.60;99.90;;;;;;4899929;28;20063;-72
2022/08/28 06:19:28;;;;;;;3.58;2.10;;;16.60;99.90;;;;;;4918836;28;20117;-72
2022/08/28 06:21:56;;;;;;;4.10;2.53;;;16.60;99.90;;;;;;4917518;28;20066;-72
2022/08/28 06:24:23;;;;;;;6.45;2.67;;;16.60;99.90;;;;;;4914895;28;20048;-72
2022/08/28 06:26:50;;;;;;;6.03;2.10;;;16.60;99.90;;;;;;4917536;28;20036;-72
2022/08/28 06:29:18;;;;;;;7.30;2.80;;;16.60;99.90;;;;;;4890624;28;20048;-72
2022/08/28 06:31:44;;;;;;;8.52;2.53;;;16.60;99.90;;;;;;4921224;28;20055;-72
2022/08/28 06:34:10;;;;;;;3.88;2.03;;;16.60;99.90;;;;;;4918198;28;20044;-71
2022/08/28 06:36:39;;;;;;;4.97;2.58;;;16.60;99.90;;;;;;4920161;28;20116;-72
2022/08/28 06:39:06;;;;;;;5.18;2.63;;;16.70;99.90;;;;;;4919209;28;20571;-72
2022/08/28 06:41:33;;;;;;;3.72;1.90;;;16.70;99.90;;;;;;4904420;28;20055;-72
2022/08/28 06:43:59;;;;;;;5.35;2.60;;;16.70;99.90;;;;;;4906333;28;20044;-72
2022/08/28 06:46:26;;;;;;;3.78;2.40;;;16.70;99.90;;;;;;4921355;28;21349;-72
2022/08/28 06:48:52;;;;;;;4.95;2.55;;;16.70;99.90;;;;;;4919730;28;20044;-72
2022/08/28 06:51:18;;;;;;;7.00;2.63;;;16.70;99.90;;;;;;4919168;28;20514;-71
2022/08/28 06:53:45;;;;;;;4.03;2.30;;;16.70;99.90;;;;;;4924571;28;20036;-72
2022/08/28 06:56:16;;;;;;;5.07;2.80;;;16.70;99.90;;;;;;4906797;28;20557;-72
2022/08/28 06:58:43;;;;;;;8.07;3.08;;;16.70;99.90;;;;;;4909266;28;20522;-72
2022/08/28 07:01:13;;;;;;;5.10;2.40;;;16.70;99.90;;;;;;4907190;28;20628;-72
2022/08/28 07:03:40;;;;;;;7.20;2.67;;;16.70;99.90;;;;;;4925205;28;20039;-71
2022/08/28 07:06:07;;;;;;;6.70;2.53;;;16.70;99.90;;;;;;4906634;28;20051;-72
2022/08/28 07:08:35;;;;;;;10.18;3.08;;;16.80;99.90;;;;;;4924569;28;20113;-71
2022/08/28 07:11:24;;;;;;;4.90;2.70;;;16.80;99.90;;;;;;4924117;28;20044;-72
2022/08/28 07:13:51;;;;;;;3.15;1.98;;;16.80;99.90;;;;;;4923959;28;20052;-72
2022/08/28 07:16:18;;;;;;;7.57;2.88;;;16.90;99.90;;;;;;4915705;28;21760;-73
2022/08/28 07:18:44;;;;;;;7.53;2.75;;;16.90;99.90;;;;;;4919621;28;20134;-73
2022/08/28 07:21:12;;;;;;;6.00;2.92;;;16.90;99.90;;;;;;4921159;28;20043;-73
2022/08/28 07:23:40;;;;;;;5.28;2.78;;;16.90;99.90;;;;;;4904422;28;20058;-72
2022/08/28 07:26:11;;;;;;;4.80;2.55;;;17.00;99.90;;;;;;4923194;28;20131;-73
2022/08/28 07:28:38;;;;;;;7.70;2.78;;;17.00;99.90;;;;;;4922957;28;20055;-72
2022/08/28 07:31:10;;;;;;;10.70;3.10;;;17.00;99.90;;;;;;4921022;28;20051;-72
2022/08/28 07:33:38;;;;;;;6.10;3.08;;;17.00;99.90;;;;;;4909068;28;20334;-72
2022/08/28 07:36:10;;;;;;;5.05;2.65;;;17.10;99.90;;;;;;4921795;28;20036;-72
2022/08/28 07:38:36;;;;;;;9.18;3.75;;;17.10;99.90;;;;;;4924159;28;20486;-72
2022/08/28 07:41:02;;;;;;;7.57;3.20;;;17.10;99.90;;;;;;4922925;28;20147;-72
2022/08/28 07:46:13;;;;;;;9.02;3.15;;;17.20;99.90;;;;;;4922472;28;20108;-73
2022/08/28 07:48:40;;;;;;;5.53;2.47;;;17.30;99.90;;;;;;4922285;28;20044;-73
2022/08/28 07:51:08;;;;;;;4.47;3.15;;;17.30;99.90;;;;;;4917443;28;20044;-72
2022/08/28 07:53:35;;;;;;;5.43;2.85;;;17.30;99.90;;;;;;4905613;28;20048;-72
2022/08/28 07:56:01;;;;;;;5.75;2.30;;;17.30;99.90;;;;;;4919674;28;20118;-77
2022/08/28 07:58:27;;;;;;;7.00;2.42;;;17.30;99.90;;;;;;4921166;28;20052;-78
2022/08/28 08:00:54;;;;;;;6.00;3.60;;;17.40;99.90;;;;;;4903137;28;20473;-71
2022/08/28 08:03:21;;;;;;;9.88;2.58;;;17.50;99.90;;;;;;4902624;28;20450;-71
2022/08/28 08:05:59;;;;;;;4.28;2.33;;;17.50;99.90;;;;;;4921037;28;20101;-71
2022/08/28 08:08:25;;;;;;;3.83;2.47;;;17.50;99.90;;;;;;4923461;28;20071;-71
2022/08/28 08:11:03;;;;;;;4.28;2.13;;;17.50;99.90;;;;;;4921897;28;20044;-71
2022/08/28 08:13:29;;;;;;;8.25;3.03;;;17.60;99.90;;;;;;4922555;28;20051;-71
2022/08/28 08:16:11;;;;;;;8.48;2.67;;;17.60;99.90;;;;;;4894790;28;20051;-71
2022/08/28 08:18:42;;;;;;;5.68;2.30;;;17.70;99.90;;;;;;4921067;28;20117;-72
2022/08/28 08:21:11;;;;;;;8.80;4.03;;;17.70;99.90;;;;;;4922647;28;20615;-72
2022/08/28 08:23:37;;;;;;;7.00;3.17;;;17.70;99.90;;;;;;4923532;28;20049;-72
2022/08/28 08:26:06;;;;;;;5.18;3.53;;;17.80;99.90;;;;;;4922709;28;20047;-72
2022/08/28 08:28:34;;;;;;;6.97;3.17;;;17.80;99.90;;;;;;4908466;28;20037;-72
2022/08/28 08:31:13;;;;;;;4.65;2.95;;;17.80;99.90;;;;;;4920665;28;20048;-72
2022/08/28 08:33:42;;;;;;;3.10;1.80;;;17.90;99.90;;;;;;4918251;28;20159;-71
2022/08/28 08:36:10;;;;;;;5.57;2.50;;;17.90;99.90;;;;;;4923755;28;20052;-71
2022/08/28 08:38:36;;;;;;;10.68;2.80;;;18.00;99.90;;;;;;4924322;28;20043;-71
2022/08/28 08:41:13;;;;;;;4.35;2.00;;;18.10;99.90;;;;;;4925835;28;20079;-72
2022/08/28 08:44:02;;;;;;;6.93;2.45;;;18.10;99.90;;;;;;4923721;28;20054;-71
2022/08/28 08:46:36;;;;;;;5.93;2.95;;;18.20;99.90;;;;;;4922866;28;20590;-72
2022/08/28 08:49:06;;;;;;;6.22;3.42;;;18.20;99.90;;;;;;4924371;28;20144;-72
2022/08/28 08:51:57;;;;;;;9.60;3.50;;;18.20;99.90;;;;;;4924757;28;20048;-71
2022/08/28 08:54:23;;;;;;;8.10;3.07;;;18.30;99.90;;;;;;4890104;28;20074;-72
2022/08/28 08:56:53;;;;;;;6.70;3.25;;;18.30;99.90;;;;;;4925007;28;20291;-72
2022/08/28 08:59:24;;;;;;;5.38;2.55;;;18.30;99.90;;;;;;4909034;28;20083;-72
2022/08/28 09:02:21;;;;;;;4.40;2.47;;;18.40;99.90;;;;;;4907483;28;20051;-72
2022/08/28 09:04:55;;;;;;;3.85;2.70;;;18.40;99.90;;;;;;4922504;28;20987;-71
2022/08/28 09:07:40;;;;;;;5.32;3.40;;;18.60;99.90;;;;;;4923256;28;20058;-72
2022/08/28 09:10:11;;;;;;;7.38;3.10;;;18.50;99.90;;;;;;4924734;28;20520;-71
2022/08/28 09:12:51;;;;;;;6.28;2.85;;;18.50;99.90;;;;;;4924649;28;20093;-72
2022/08/28 09:15:30;;;;;;;5.13;2.42;;;18.50;99.90;;;;;;4907527;28;20599;-71
2022/08/28 09:18:06;;;;;;;5.72;2.35;;;18.60;99.90;;;;;;4923266;28;20335;-72
2022/08/28 09:20:32;;;;;;;10.07;3.00;;;18.60;99.90;;;;;;4907643;28;20059;-72
2022/08/28 09:22:58;;;;;;;7.95;2.88;;;18.60;99.90;;;;;;4924157;28;20079;-71
2022/08/28 09:25:47;;;;;;;6.80;1.98;;;18.70;99.90;;;;;;4921462;28;20056;-71
2022/08/28 09:28:29;;;;;;;3.70;2.25;;;18.80;99.90;;;;;;4911024;28;20114;-71
2022/08/28 09:31:01;;;;;;;;;;;18.80;99.90;;;;;;4901817;28;20072;-71
2022/08/28 09:33:35;;;;;;;4.18;2.22;;;18.80;99.90;;;;;;4908652;28;20110;-72
2022/08/28 09:36:28;;;;;;;5.30;2.97;;;18.80;99.90;;;;;;4907608;28;20055;-71
2022/08/28 09:39:17;;;;;;;6.65;2.15;;;18.90;99.90;;;;;;4920708;28;20050;-71
2022/08/28 09:44:49;;;;;;;10.35;3.20;;;18.90;99.90;;;;;;4924076;28;20640;-71
2022/08/28 09:47:33;;;;;;;;;;;19.00;99.90;;;;;;4925409;28;20076;-72
2022/08/28 09:50:24;;;;;;;10.43;3.13;;;19.10;99.90;;;;;;4923819;28;20002;-72
2022/08/28 09:52:52;;;;;;;4.80;2.58;;;19.00;99.90;;;;;;4909591;28;20044;-71
2022/08/28 09:55:30;;;;;;;5.10;2.30;;;19.10;99.90;;;;;;4908460;28;20051;-72
2022/08/28 09:57:57;;;;;;;7.72;2.83;;;19.10;99.90;;;;;;4922582;28;20062;-71
2022/08/28 10:00:23;;;;;;;17.58;2.63;;;19.20;99.90;;;;;;4924177;28;20039;-71
2022/08/28 10:03:00;;;;;;;5.38;2.63;;;;;;;;;;4906995;28;20048;-71
2022/08/28 10:05:37;;;;;;;9.45;2.75;;;;;;;;;;4921462;28;20044;-72
2022/08/28 10:08:08;;;;;;;4.45;2.35;;;;;;;;;;4909329;28;20111;-72
2022/08/28 10:10:45;;;;;;;6.95;2.17;;;;;;;;;;4923557;28;20103;-72
2022/08/28 10:13:23;;;;;;;5.85;2.60;;;;;;;;;;4921906;28;20044;-73
2022/08/28 10:16:08;;;;;;;6.00;2.40;;;;;;;;;;4923667;28;20087;-73
2022/08/28 10:18:38;;;;;;;4.07;2.15;;;;;;;;;;4891735;28;20064;-73
2022/08/28 10:21:12;;;;;;;4.90;2.50;;;;;;;;;;4898612;28;20549;-73
2022/08/28 10:23:57;;;;;;;6.47;2.63;;;;;;;;;;4889040;28;20061;-72
2022/08/28 10:26:42;;;;;;;8.15;2.97;;;;;;;;;;4904133;28;20739;-73
2022/08/28 10:29:20;;;;;;;4.60;2.45;;;;;;;;;;4903653;28;20056;-73
2022/08/28 10:31:59;;;;;;;9.57;2.78;;;;;;;;;;4888325;28;20048;-73
2022/08/28 10:34:25;;;;;;;4.22;2.38;;;;;;;;;;4902631;28;20055;-73
2022/08/28 10:37:04;;;;;;;8.05;2.75;;;;;;;;;;4904635;28;20043;-73
2022/08/28 10:39:40;;;;;;;7.95;2.70;;;;;;;;;;4898760;28;20048;-72
2022/08/28 10:42:07;;;;;;;5.68;2.78;;;;;;;;;;4903668;28;20047;-72
2022/08/28 10:44:55;;;;;;;9.60;4.35;;;;;;;;;;4899600;28;20123;-72
2022/08/28 10:47:22;;;;;;;4.65;2.28;;;;;;;;;;4898786;28;21285;-72
2022/08/28 10:49:50;;;;;;;5.82;3.05;;;;;;;;;;4898293;28;20049;-72
2022/08/28 10:52:35;;;;;;;4.15;2.50;;;;;;;;;;4900786;28;20044;-71
2022/08/28 10:55:03;;;;;;;6.18;3.20;;;;;;;;;;4901848;28;20067;-73
2022/08/28 10:57:39;;;;;;;3.85;2.45;;;;;;;;;;4900257;28;20187;-72
2022/08/28 11:00:16;;;;;;;5.60;3.38;;;;;;;;;;4899524;28;20080;-72
2022/08/28 11:02:48;;;;;;;4.38;3.03;;;;;;;;;;4896329;28;20075;-72
2022/08/28 11:05:14;;;;;;;6.55;3.22;;;;;;;;;;4897983;28;20049;-74
2022/08/28 11:07:44;;;;;;;7.60;3.55;;;;;;;;;;4895305;28;20044;-71
2022/08/28 11:10:16;;;;;;;6.15;2.92;;;;;;;;;;4896885;28;20809;-71
2022/08/28 11:12:42;;;;;;;7.65;4.30;;;;;;;;;;4901573;28;20048;-72
2022/08/28 11:15:27;;;;;;;4.82;3.08;;;;;;;;;;4902401;28;21491;-72
2022/08/28 11:17:55;;;;;;;7.63;2.70;;;;;;;;;;4903099;28;20489;-72
2022/08/28 11:20:23;;;;;;;4.72;3.25;;;;;;;;;;4912165;28;20853;-71
2022/08/28 11:22:56;;;;;;;6.07;2.58;;;;;;;;;;4900054;28;20041;-71
2022/08/28 11:25:28;;;;;;;6.95;2.70;;;;;;;;;;4900289;28;20135;-71
2022/08/28 11:28:13;;;;;;;6.68;2.95;;;;;;;;;;4885423;28;20044;-71
2022/08/28 11:30:40;;;;;;;5.10;2.35;;;;;;;;;;4903063;28;20040;-70
2022/08/28 11:33:29;;;;;;;5.13;2.97;;;;;;;;;;4902947;28;20051;-70
2022/08/28 11:35:55;;;;;;;5.80;2.63;;;;;;;;;;4903314;28;20655;-70
2022/08/28 11:38:45;;;;;;;6.10;2.80;;;;;;;;;;4899016;28;20175;-76
2022/08/28 11:41:12;;;;;;;6.57;3.58;;;;;;;;;;4893471;28;20107;-75
2022/08/28 11:43:39;;;;;;;8.32;3.38;;;;;;;;;;4901991;28;20045;-76
2022/08/28 11:46:10;;;;;;;3.53;2.53;;;;;;;;;;4901989;28;20041;-76
2022/08/28 11:48:38;;;;;;;6.20;2.75;;;;;;;;;;4903739;28;20050;-76
2022/08/28 11:51:05;;;;;;;3.95;2.67;;;;;;;;;;4903158;28;20067;-75
2022/08/28 11:53:50;;;;;;;4.10;2.55;;;;;;;;;;4903664;28;20125;-75
2022/08/28 11:56:26;;;;;;;5.85;2.47;;;;;;;;;;4901558;28;20185;-75
2022/08/28 11:59:10;;;;;;;5.18;3.00;;;;;;;;;;4887368;28;20040;-75
2022/08/28 12:01:38;;;;;;;5.47;3.20;;;;;;;;;;4900989;28;20044;-74
2022/08/28 12:04:06;;;;;;;5.10;2.55;;;;;;;;;;4901586;28;20036;-74
2022/08/28 12:06:53;;;;;;;6.75;2.58;;;;;;;;;;4900009;28;20051;-75
2022/08/28 12:09:25;;;;;;;4.88;2.50;;;;;;;;;;4887716;28;20064;-74
2022/08/28 12:11:53;;;;;;;4.47;3.05;;;;;;;;;;4894180;28;20083;-74
2022/08/28 12:14:26;;;;;;;3.05;2.25;;;;;;;;;;4896879;28;20068;-74
2022/08/28 12:16:58;;;;;;;4.70;2.67;;;;;;;;;;4893701;28;20551;-74
2022/08/28 12:19:30;;;;;;;4.15;2.72;;;;;;;;;;4911111;28;20060;-75
2022/08/28 12:21:57;;;;;;;5.90;2.45;;;;;;;;;;4914342;28;20471;-74
2022/08/28 12:24:23;;;;;;;4.78;3.00;;;;;;;;;;4898244;28;20048;-75
2022/08/28 12:26:53;;;;;;;3.97;2.30;;;;;;;;;;4900766;28;20594;-75
2022/08/28 12:29:30;;;;;;;5.90;2.35;;;;;;;;;;4901963;28;20238;-75
2022/08/28 12:32:11;;;;;;;6.25;3.65;;;;;;;;;;4903836;28;20099;-74
2022/08/28 12:34:40;;;;;;;4.88;3.17;;;;;;;;;;4899006;28;22032;-75
2022/08/28 12:37:18;;;;;;;7.30;3.50;;;;;;;;;;4903853;28;20036;-75
2022/08/28 12:39:44;;;;;;;11.60;5.20;;;;;;;;;;4903011;28;20090;-75
2022/08/28 12:42:16;;;;;;;5.53;3.03;;;;;;;;;;4882076;28;20059;-75
2022/08/28 12:44:42;;;;;;;5.88;3.70;;;;;;;;;;4899938;28;20052;-75
2022/08/28 12:47:11;;;;;;;8.20;3.85;;;;;;;;;;4901394;28;20687;-74
2022/08/28 12:49:37;;;;;;;6.00;2.95;;;;;;;;;;4895556;28;20076;-75
2022/08/28 12:52:11;;;;;;;6.68;3.50;;;;;;;;;;4901405;28;20558;-75
2022/08/28 12:54:37;;;;;;;7.78;4.00;;;;;;;;;;4902328;28;20044;-75
2022/08/28 12:57:06;;;;;;;9.35;3.70;;;;;;;;;;4897352;28;20071;-75
2022/08/28 12:59:38;;;;;;;6.45;3.38;;;;;;;;;;4902146;28;20194;-74
2022/08/28 13:02:06;;;;;;;4.88;3.05;;;;;;;;;;4902371;28;20534;-75
2022/08/28 13:04:32;;;;;;;8.32;3.72;;;;;;;;;;4902841;28;20063;-75
2022/08/28 13:07:18;;;;;;;9.38;4.03;;;;;;;;;;4902201;28;20040;-75
2022/08/28 13:09:46;;;;;;;6.70;3.40;;;;;;;;;;4903401;28;20135;-75
2022/08/28 13:12:38;;;;;;;4.45;2.95;;;;;;;;;;4901885;28;20055;-74
2022/08/28 13:15:05;;;;;;;6.53;2.85;;;;;;;;;;4898060;28;20059;-74
2022/08/28 13:17:49;;;;;;;5.65;3.45;;;;;;;;;;4901127;28;21133;-74
2022/08/28 13:20:29;;;;;;;6.18;3.28;;;;;;;;;;4919060;28;20064;-73
2022/08/28 13:22:55;;;;;;;5.78;3.88;;;;;;;;;;4921373;28;20055;-73
2022/08/28 13:25:23;;;;;;;6.80;3.17;;;;;;;;;;4920859;28;20036;-73
2022/08/28 13:28:18;;;;;;;4.10;2.58;;;;;;;;;;4909698;28;20147;-74
2022/08/28 13:30:55;;;;;;;6.50;2.97;;;;;;;;;;4914650;28;20072;-74
2022/08/28 13:33:25;;;;;;;5.45;3.20;;;;;;;;;;4923075;28;20048;-72
2022/08/28 13:35:52;;;;;;;5.03;2.75;;;;;;;;;;4923567;28;20059;-73
2022/08/28 13:38:19;;;;;;;5.03;2.28;;;;;;;;;;4904088;28;20090;-72
2022/08/28 13:40:57;;;;;;;8.13;2.80;;;;;;;;;;4923682;28;20156;-72
2022/08/28 13:43:23;;;;;;;6.43;2.90;;;;;;;;;;4922637;28;20098;-72
2022/08/28 13:45:50;;;;;;;5.18;2.58;;;;;;;;;;4921624;28;21369;-72